Washingtonville, Pennsylvania
Current Conditions -  °F | °C
As of 1:54 PM on Friday 28 Nov 2014 (Local Time) from KIPT Reporting Station
Clear Clear  
Wind Chill: 25°   Ceiling: Unl
Heat Index: 33°   Visibility: 10mi
Dew Point: 12°   Wind: 10mph
Humidity: 42%   Direction: 320°NW
Pressure: 30.19"   Gusts: NA
Location:  41.05°N, 76.67°W
Report Text: KIPT 281854Z 32009KT 10SM CLR 01/M11 A3019 RMK AO2 SLP230 T00061111
Loading
Personal Weather Stations






























Interactive Weather Map New forecast layout! Learn more

10-Day Weather Forecast

Advertisements
Track Severe Weather on mobile